Flight Track Log - Related Links

Times and Time Zones

All times are in EDT time to prevent confusion due to time zone crossing. See the SWA1377 flight status page for this flight to view local times or setup timezone preferences in your user account.

Time Position Orientation Groundspeed Altitude Reporting Facility
EDT Latitude Longitude Course Direction KTS MPH feet Rate Location/Type
Tue 10:22:30 AM 41.7500 -87.7500 90° East 194 223 2,400  Level Chicago TRACON
Tue 10:23:25 AM 41.7500 -87.6667 90° East 247 284 5,500 3,620 Climbing Chicago TRACON
Tue 10:24:31 AM 41.7667 -87.5500 79° East 305 351 9,700 3,495 Climbing Chicago TRACON
Tue 10:24:56 AM 41.7592 -87.5164 107° East 290 334 10,800 3,517 Climbing Chicago Center
Tue 10:25:58 AM 41.7608 -87.3667 89° East 331 381 14,800 2,903 Climbing Chicago Center
Tue 10:27:00 AM 41.7608 -87.2350 90° East 350 403 16,800 2,661 Climbing Chicago Center
Tue 10:28:02 AM 41.7611 -87.0958 90° East 370 426 20,300 2,806 Climbing Chicago Center
Tue 10:29:04 AM 41.7625 -86.9483 89° East 393 452 22,600 2,032 Climbing Chicago Center
Tue 10:30:06 AM 41.7644 -86.7856 89° East 432 497 24,500 2,032 Climbing Chicago Center
Tue 10:31:08 AM 41.7667 -86.6019 89° East 460 529 26,800 2,098 Climbing Chicago Center
Tue 10:32:09 AM 41.7675 -86.4239 90° East 478 550 28,800 2,049 Climbing Chicago Center
Tue 10:33:11 AM 41.7819 -86.2378 84° East 500 575 31,000 1,935 Climbing Chicago Center
Tue 10:34:13 AM 41.8144 -86.0567 76° East 500 575 32,800 1,548 Climbing Chicago Center
Tue 10:35:15 AM 41.8464 -85.8664 77° East 519 597 34,200 1,065 Climbing Chicago Center
Tue 10:36:17 AM 41.8850 -85.6289 78° East 536 617 35,000 871 Climbing Chicago Center
Tue 10:37:19 AM 41.9192 -85.4281 77° East 542 624 36,000 1,026 Climbing Chicago Center
Tue 10:38:14 AM 41.9478 -85.2631 77° East 540 621 37,000 522 Climbing Cleveland Center
Tue 10:39:14 AM 41.9539 -85.0594 88° East 540 621 37,000  Level Cleveland Center
Tue 10:40:14 AM 41.9533 -84.8583 90° East 535 616 37,000  Level Cleveland Center
Tue 10:41:14 AM 41.9500 -84.6569 91° East 535 616 37,000  Level Cleveland Center
Tue 10:42:14 AM 41.9486 -84.4614 90° East 530 610 37,000  Level Cleveland Center
Tue 10:43:14 AM 41.9431 -84.2489 92° East 524 603 37,000  Level Cleveland Center
Tue 10:44:14 AM 41.9408 -84.0506 91° East 524 603 37,000  Level Cleveland Center
Tue 10:45:14 AM 41.9381 -83.8606 91° East 518 596 37,000  Level Cleveland Center
Tue 10:46:14 AM 41.9353 -83.6647 91° East 518 596 37,000 -1,350 Level Cleveland Center
Tue 10:47:14 AM 41.9336 -83.4861 91° East 518 596 34,300 -1,500 Descending Cleveland Center
Tue 10:48:14 AM 41.9322 -83.2906 90° East 523 602 34,000 -150 Descending Cleveland Center
Tue 10:49:14 AM 41.9306 -83.0811 91° East 517 595 34,000  Level Cleveland Center
Tue 10:50:14 AM 41.9283 -82.8886 91° East 517 595 34,000 -500 Level Cleveland Center
Tue 10:51:14 AM 41.9275 -82.7156 90° East 517 595 33,000 -500 Descending Cleveland Center
Tue 10:52:14 AM 41.9247 -82.5283 91° East 517 595 33,000 -100 Level Cleveland Center
Tue 10:53:14 AM 41.9236 -82.3442 90° East 506 582 32,800 -1,000 Descending Cleveland Center
Tue 10:54:14 AM 41.9200 -82.1569 91° East 501 577 31,000 -1,850 Descending Cleveland Center
Tue 10:55:14 AM 41.9206 -81.9506 90° East 501 577 29,100 -1,700 Descending Cleveland Center
Tue 10:56:14 AM 41.9286 -81.7833 86° East 470 541 27,600 -1,550 Descending Cleveland Center
Tue 10:57:14 AM 41.9592 -81.6497 73° East 436 502 26,000 -1,300 Descending Cleveland Center
Tue 10:58:14 AM 41.9917 -81.5022 73° East 410 472 25,000 -500 Descending Cleveland Center
Tue 10:59:14 AM 42.0283 -81.3575 71° East 405 466 25,000  Level Cleveland Center
Tue 11:00:14 AM 42.0647 -81.2014 73° East 413 475 25,000  Level Cleveland Center
Tue 11:01:14 AM 42.0986 -81.0561 73° East 413 475 25,000  Level Cleveland Center
Tue 11:02:14 AM 42.1347 -80.8911 74° East 413 475 25,000  Level Cleveland Center
Tue 11:03:14 AM 42.1683 -80.7456 73° East 413 475 25,000 -50 Level Cleveland Center
Tue 11:04:14 AM 42.2039 -80.5972 72° East 418 481 24,900 -550 Descending Cleveland Center
Tue 11:05:14 AM 42.2350 -80.4486 74° East 418 481 23,900 -950 Descending Cleveland Center
Tue 11:06:14 AM 42.2681 -80.3025 73° East 413 475 23,000 -450 Descending Cleveland Center
Tue 11:07:14 AM 42.2989 -80.1622 73° East 402 463 23,000 -500 Level Cleveland Center
Tue 11:08:14 AM 42.3297 -80.0158 74° East 396 456 22,000 -1,550 Descending Cleveland Center
Tue 11:09:14 AM 42.3622 -79.8778 72° East 396 456 19,900 -2,100 Descending Cleveland Center
Tue 11:10:14 AM 42.3925 -79.7342 74° East 391 450 17,800 -1,950 Descending Cleveland Center
Tue 11:11:14 AM 42.4186 -79.6072 74° East 372 428 16,000 -1,850 Descending Cleveland Center
Tue 11:12:14 AM 42.4572 -79.4883 66° East 354 407 14,100 -1,400 Descending Cleveland Center
Tue 11:13:14 AM 42.5250 -79.3972 45° Northeast 341 392 13,200 -950 Descending Cleveland Center
Tue 11:14:14 AM 42.5886 -79.3086 46° Northeast 329 379 12,200 -1,300 Descending Cleveland Center
Tue 11:15:14 AM 42.6564 -79.2225 43° Northeast 324 373 10,600 -1,300 Descending Cleveland Center
Tue 11:16:14 AM 42.7097 -79.1506 45° Northeast 319 367 9,600 -1,240 Descending Cleveland Center
Tue 11:17:15 AM 42.7672 -79.0731 45° Northeast 301 346 8,100 -1,450 Descending Cleveland Center
Tue 11:18:14 AM 42.8286 -78.9894 45° Northeast 284 327 6,700 -1,311 Descending Cleveland Center
Tue 11:19:14 AM 42.8817 -78.9172 45° Northeast 279 321 5,500 -1,250 Descending Cleveland Center
Tue 11:20:14 AM 42.9369 -78.8447 44° Northeast 273 314 4,200 -1,103 Descending Cleveland Center
Tue 11:20:41 AM 42.9667 -78.8167 35° Northeast 259 298 3,900 -286 Descending Buffalo TRACON
Tue 11:21:17 AM 42.9833 -78.7833 56° Northeast 213 245 3,900 -250 Level Buffalo TRACON
Tue 11:22:17 AM 43.0167 -78.7333 48° Northeast 165 190 3,500 -792 Descending Buffalo TRACON
Tue 11:23:41 AM 43.0000 -78.6667 109° East 130 150 2,000 -958 Descending Buffalo TRACON
Tue 11:24:41 AM 42.9667 -78.7000 216° Southwest 131 151 1,200 -800 Descending Buffalo TRACON

Login

Don't have an account? Register now (free) for customized features, flight alerts, and more!